< < Back
Terminal Aerodrome Forecast


Current Version              Previous Versions:   1  2  3  4  5  6  7  8  9  

Terminal Aerodrome Forecast

572
FTUS42 KCHS 301500 AAB
TAFSAV
TAF AMD
KSAV 301507Z 3015/3112 36007KT P6SM SCT050
      TEMPO 3015/3016 BKN012
     FM302300 36005KT P6SM SCT045=

Latest METAR

247
SAUS80 KWBC 301600 RRA
MTRSAV
METAR KSAV 301553Z 34008KT 10SM OVC013 21/15 A3000 RMK AO2 SLP158 CIG
010V015 BINOVC T02110150


USA.gov is the U.S. government's official web portal to all federal, state and local government web resources and services.